createdAt,value
2022-08-05T00:01:36.549Z,75.92
2022-08-05T00:04:19.402Z,75.65
2022-08-05T00:06:51.823Z,75.31
2022-08-05T00:09:20.410Z,75.10
2022-08-05T00:11:55.869Z,74.47
2022-08-05T00:14:29.238Z,74.40
2022-08-05T00:17:01.640Z,74.42
2022-08-05T00:19:33.432Z,74.55
2022-08-05T00:22:11.894Z,73.97
2022-08-05T00:24:42.535Z,73.93
2022-08-05T00:27:16.825Z,73.73
2022-08-05T00:29:45.102Z,73.89
2022-08-05T00:32:15.139Z,73.81
2022-08-05T00:35:04.538Z,73.66
2022-08-05T00:37:50.283Z,73.90
2022-08-05T00:40:27.550Z,74.15
2022-08-05T00:42:59.112Z,74.26
2022-08-05T00:45:38.951Z,74.15
2022-08-05T00:48:18.501Z,74.26
2022-08-05T00:50:56.083Z,73.79
2022-08-05T00:54:00.440Z,73.60
2022-08-05T00:56:12.075Z,73.51
2022-08-05T00:58:40.462Z,73.53
2022-08-05T01:01:13.433Z,73.77
2022-08-05T01:03:42.400Z,73.54
2022-08-05T01:06:15.279Z,73.76
2022-08-05T01:08:44.796Z,73.67
2022-08-05T01:11:33.488Z,73.94
2022-08-05T01:14:31.890Z,74.26
2022-08-05T01:17:11.022Z,74.02
2022-08-05T01:20:09.795Z,73.99
2022-08-05T01:22:51.507Z,74.36
2022-08-05T01:25:39.869Z,74.46
2022-08-05T01:28:28.126Z,74.23
2022-08-05T01:31:12.552Z,74.58
2022-08-05T01:34:02.485Z,74.64
2022-08-05T01:36:36.238Z,75.08
2022-08-05T01:39:12.249Z,75.05
2022-08-05T01:41:44.523Z,75.17
2022-08-05T01:44:14.203Z,75.44
2022-08-05T01:46:46.440Z,75.35
2022-08-05T01:49:24.399Z,75.24
2022-08-05T01:52:02.274Z,75.24
2022-08-05T01:54:53.989Z,75.16
2022-08-05T01:58:12.555Z,75.64
2022-08-05T02:00:18.856Z,75.83
2022-08-05T02:02:57.749Z,75.89
2022-08-05T02:05:30.250Z,76.10
2022-08-05T02:08:02.503Z,75.99
2022-08-05T02:10:36.660Z,76.25
2022-08-05T02:13:16.259Z,76.55
2022-08-05T02:15:54.125Z,76.86
2022-08-05T02:18:34.925Z,76.70
2022-08-05T02:21:16.216Z,77.10
2022-08-05T02:23:48.480Z,77.30
2022-08-05T02:26:53.832Z,77.55
2022-08-05T02:29:58.247Z,77.98
2022-08-05T02:32:19.927Z,78.80
2022-08-05T02:34:54.834Z,79.29
2022-08-05T02:37:24.921Z,79.90
2022-08-05T02:39:54.623Z,80.80
2022-08-05T02:42:25.808Z,81.16
2022-08-05T02:44:57.181Z,83.01
2022-08-05T02:48:06.426Z,83.69
2022-08-05T02:50:18.130Z,84.14
2022-08-05T02:52:46.946Z,84.84
2022-08-05T02:55:17.592Z,85.42
2022-08-05T02:58:09.337Z,85.97
2022-08-05T03:00:41.175Z,87.47
2022-08-05T03:03:20.112Z,87.90
2022-08-05T03:06:55.098Z,89.09
2022-08-05T03:08:42.660Z,89.35
2022-08-05T03:11:54.521Z,89.22
2022-08-05T03:14:07.900Z,90.06
2022-08-05T03:16:35.988Z,90.97
2022-08-05T03:19:16.932Z,91.20
2022-08-05T03:21:48.751Z,90.95
2022-08-05T03:24:26.881Z,91.81
2022-08-05T03:27:00.914Z,91.63
2022-08-05T03:29:44.785Z,92.10
2022-08-05T03:32:19.641Z,91.79
2022-08-05T03:34:50.354Z,92.59
2022-08-05T03:37:21.339Z,92.06
2022-08-05T03:40:01.143Z,92.05
2022-08-05T03:42:32.298Z,92.29
2022-08-05T03:45:22.177Z,91.95
2022-08-05T03:47:51.835Z,92.00
2022-08-05T03:50:29.017Z,92.22
2022-08-05T03:55:52.348Z,92.87
2022-08-05T03:56:35.057Z,93.63
2022-08-05T03:59:10.813Z,93.59
2022-08-05T04:01:42.618Z,92.38
2022-08-05T04:04:21.094Z,91.24
2022-08-05T04:06:51.765Z,91.02
2022-08-05T04:09:26.573Z,90.71
2022-08-05T04:11:56.948Z,90.49
2022-08-05T04:14:30.601Z,89.99
2022-08-05T04:17:00.765Z,89.42
2022-08-05T04:19:30.597Z,84.60
2022-08-05T04:22:08.788Z,82.43
2022-08-05T04:24:44.134Z,83.66
2022-08-05T04:27:13.784Z,83.58
2022-08-05T04:29:43.284Z,82.18
2022-08-05T04:32:11.260Z,83.12
2022-08-05T04:34:43.035Z,83.41
2022-08-05T04:37:11.486Z,83.98
2022-08-05T04:39:40.669Z,83.96
2022-08-05T04:42:09.351Z,84.43
2022-08-05T04:44:37.245Z,84.20
2022-08-05T04:47:08.931Z,83.77
2022-08-05T04:50:03.098Z,83.60
2022-08-05T04:52:28.908Z,82.55
2022-08-05T04:54:56.998Z,81.16
2022-08-05T04:57:28.497Z,81.06
2022-08-05T04:59:58.671Z,79.59
2022-08-05T05:02:41.081Z,79.77
2022-08-05T05:05:16.500Z,80.15
2022-08-05T05:07:56.406Z,81.22
2022-08-05T05:10:33.371Z,81.54
2022-08-05T05:13:04.147Z,80.73
2022-08-05T05:16:00.479Z,80.06
2022-08-05T05:18:28.329Z,77.71
2022-08-05T05:20:56.683Z,77.90
2022-08-05T05:23:26.373Z,77.68
2022-08-05T05:25:54.051Z,77.18
2022-08-05T05:28:22.073Z,77.20
2022-08-05T05:30:52.668Z,76.94
2022-08-05T05:33:23.371Z,75.84
2022-08-05T05:35:51.907Z,74.98
2022-08-05T05:38:22.797Z,75.02
2022-08-05T05:40:57.071Z,74.43
2022-08-05T05:43:57.084Z,73.42
2022-08-05T05:46:17.221Z,73.36
2022-08-05T05:48:48.498Z,73.02
2022-08-05T05:51:24.207Z,72.18
2022-08-05T05:53:58.890Z,72.09
2022-08-05T05:56:32.585Z,72.15
2022-08-05T05:59:05.484Z,72.11
2022-08-05T06:01:40.036Z,71.80
2022-08-05T06:04:12.188Z,71.87
2022-08-05T06:06:42.910Z,70.71
2022-08-05T06:09:17.513Z,70.53
2022-08-05T06:12:01.146Z,70.54
2022-08-05T06:14:31.635Z,70.47
2022-08-05T06:17:02.024Z,70.38
2022-08-05T06:19:57.029Z,70.14
2022-08-05T06:22:33.310Z,69.31
2022-08-05T06:25:59.695Z,70.02
2022-08-05T06:28:10.651Z,69.34
2022-08-05T06:30:39.312Z,68.60
2022-08-05T06:33:09.884Z,68.77
2022-08-05T06:36:07.227Z,68.77
2022-08-05T06:38:36.444Z,67.87
2022-08-05T06:41:07.822Z,68.40
2022-08-05T06:43:58.967Z,69.25
2022-08-05T06:46:30.437Z,68.25
2022-08-05T06:49:00.983Z,68.51
2022-08-05T06:51:30.885Z,68.40
2022-08-05T06:54:00.517Z,67.53
2022-08-05T06:56:34.237Z,67.94
2022-08-05T06:59:09.554Z,67.41
2022-08-05T07:01:40.699Z,67.25
2022-08-05T07:04:10.756Z,67.33
2022-08-05T07:06:42.243Z,65.99
2022-08-05T07:09:10.054Z,65.84
2022-08-05T07:11:39.824Z,65.57
2022-08-05T07:14:30.079Z,65.80
2022-08-05T07:17:59.792Z,65.18
2022-08-05T07:20:31.410Z,64.32
2022-08-05T07:22:41.938Z,64.70
2022-08-05T07:25:54.489Z,63.90
2022-08-05T07:28:05.797Z,63.59
2022-08-05T07:30:39.550Z,63.04
2022-08-05T07:33:16.388Z,63.34
2022-08-05T07:36:04.783Z,63.23
2022-08-05T07:38:43.280Z,61.94
2022-08-05T07:42:14.223Z,61.84
2022-08-05T07:44:14.061Z,60.83
2022-08-05T07:46:49.413Z,61.73
2022-08-05T07:49:19.567Z,61.62
2022-08-05T07:51:53.120Z,60.45
2022-08-05T07:54:30.773Z,59.95
2022-08-05T07:57:17.748Z,59.49
2022-08-05T07:59:51.992Z,59.80
2022-08-05T08:02:26.757Z,60.85
2022-08-05T08:04:59.582Z,59.30
2022-08-05T08:07:28.944Z,60.21
2022-08-05T08:10:07.625Z,60.63
2022-08-05T08:12:49.236Z,59.90
2022-08-05T08:15:17.949Z,59.37
2022-08-05T08:18:13.682Z,59.83
2022-08-05T08:21:02.343Z,59.39
2022-08-05T08:24:01.969Z,59.96
2022-08-05T08:26:26.879Z,58.32
2022-08-05T08:29:21.934Z,58.33
2022-08-05T08:31:49.842Z,58.38
2022-08-05T08:34:30.236Z,57.53
2022-08-05T08:37:03.258Z,57.25
2022-08-05T08:39:37.204Z,57.66
2022-08-05T08:42:32.545Z,56.90
2022-08-05T08:45:23.974Z,56.57
2022-08-05T08:48:10.743Z,56.60
2022-08-05T08:51:03.251Z,56.79
2022-08-05T08:53:31.132Z,56.69
2022-08-05T08:56:05.601Z,56.73
2022-08-05T08:58:37.644Z,57.10
2022-08-05T09:01:16.241Z,56.54
2022-08-05T09:03:48.347Z,56.65
2022-08-05T09:06:28.216Z,55.93
2022-08-05T09:09:00.659Z,55.68
2022-08-05T09:11:51.473Z,56.26
2022-08-05T09:14:57.031Z,56.23
2022-08-05T09:17:41.170Z,55.65
2022-08-05T09:20:02.760Z,55.56
2022-08-05T09:23:09.016Z,55.73
2022-08-05T09:26:01.308Z,55.19
2022-08-05T09:28:34.530Z,55.70
2022-08-05T09:31:44.174Z,54.19
2022-08-05T09:33:59.163Z,54.06
2022-08-05T09:36:54.916Z,53.73
2022-08-05T09:39:41.148Z,54.22
2022-08-05T09:42:20.247Z,54.78
2022-08-05T09:44:56.401Z,53.30
2022-08-05T09:47:36.439Z,53.55
2022-08-05T09:50:38.081Z,52.45
2022-08-05T09:53:07.195Z,52.18
2022-08-05T09:55:58.237Z,51.46
2022-08-05T09:58:26.484Z,52.36
2022-08-05T10:01:13.374Z,52.32
2022-08-05T10:04:02.190Z,52.15
2022-08-05T10:06:32.237Z,51.04
2022-08-05T10:09:27.523Z,51.26
2022-08-05T10:12:30.238Z,51.98
2022-08-05T10:15:21.659Z,50.89
2022-08-05T10:18:08.802Z,52.12
2022-08-05T10:20:50.534Z,51.12
2022-08-05T10:23:55.277Z,50.92
2022-08-05T10:26:14.533Z,51.12
2022-08-05T10:28:45.087Z,51.38
2022-08-05T10:32:54.070Z,51.42
2022-08-05T10:34:07.109Z,50.65
2022-08-05T10:36:41.507Z,50.97
2022-08-05T10:39:24.252Z,51.56
2022-08-05T10:42:01.235Z,51.29
2022-08-05T10:44:31.545Z,50.74
2022-08-05T10:46:59.298Z,50.26
2022-08-05T10:49:33.316Z,49.68
2022-08-05T10:52:05.551Z,48.80
2022-08-05T10:55:03.040Z,49.48
2022-08-05T10:57:34.014Z,47.81
2022-08-05T11:00:18.509Z,47.45
2022-08-05T11:03:23.181Z,47.57
2022-08-05T11:06:04.275Z,48.36
2022-08-05T11:08:37.458Z,48.84
2022-08-05T11:11:44.657Z,47.49
2022-08-05T11:14:57.571Z,47.88
2022-08-05T11:18:00.417Z,48.17
2022-08-05T11:20:41.689Z,47.29
2022-08-05T11:24:04.819Z,48.21
2022-08-05T11:26:32.335Z,47.60
2022-08-05T11:29:13.746Z,47.20
2022-08-05T11:31:58.023Z,47.47
2022-08-05T11:34:47.413Z,47.81
2022-08-05T11:38:26.842Z,48.22
2022-08-05T11:41:35.123Z,48.23
2022-08-05T11:44:07.307Z,47.67
2022-08-05T11:46:58.697Z,47.32
2022-08-05T11:49:36.248Z,46.56
2022-08-05T11:52:08.424Z,46.20
2022-08-05T11:54:41.309Z,47.39
2022-08-05T11:57:24.244Z,47.68
2022-08-05T11:59:54.616Z,47.45
2022-08-05T12:02:33.451Z,47.26
2022-08-05T12:05:08.210Z,47.49
2022-08-05T12:08:04.394Z,47.27
2022-08-05T12:10:43.805Z,45.92
2022-08-05T12:13:17.218Z,46.83
2022-08-05T12:15:56.300Z,46.92
2022-08-05T12:18:38.890Z,45.28
2022-08-05T12:21:12.303Z,43.52
2022-08-05T12:23:43.232Z,45.81
2022-08-05T12:26:11.239Z,46.52
2022-08-05T12:28:39.203Z,46.06
2022-08-05T12:31:07.262Z,45.52
2022-08-05T12:33:36.376Z,46.96
2022-08-05T12:36:08.639Z,47.11
2022-08-05T12:38:39.891Z,47.21
2022-08-05T12:41:13.905Z,47.21
2022-08-05T12:43:57.350Z,46.27
2022-08-05T12:46:29.285Z,46.99
2022-08-05T12:49:00.512Z,46.13
2022-08-05T12:52:10.316Z,46.44
2022-08-05T12:54:23.229Z,46.34
2022-08-05T12:56:57.437Z,45.63
2022-08-05T13:01:58.500Z,45.41
2022-08-05T13:02:40.146Z,45.38
2022-08-05T13:05:12.664Z,45.11
2022-08-05T13:07:59.925Z,46.72
2022-08-05T13:10:33.238Z,46.53
2022-08-05T13:13:01.017Z,47.29
2022-08-05T13:15:35.906Z,47.23
2022-08-05T13:18:19.440Z,46.99
2022-08-05T13:20:49.807Z,46.69
2022-08-05T13:23:22.642Z,47.32
2022-08-05T13:25:58.973Z,46.53
2022-08-05T13:28:28.566Z,46.42
2022-08-05T13:30:57.226Z,45.71
2022-08-05T13:34:22.239Z,45.49
2022-08-05T13:36:14.539Z,45.95
2022-08-05T13:38:43.243Z,45.95
2022-08-05T13:41:11.755Z,46.11
2022-08-05T13:43:45.924Z,45.09
2022-08-05T13:46:43.893Z,44.65
2022-08-05T13:49:12.874Z,44.73
2022-08-05T13:51:46.254Z,45.15
2022-08-05T13:54:16.659Z,44.71
2022-08-05T13:56:51.428Z,45.33
2022-08-05T13:59:24.603Z,45.94
2022-08-05T14:01:58.361Z,46.03
2022-08-05T14:04:49.738Z,46.54
2022-08-05T14:07:56.223Z,44.83
2022-08-05T14:10:18.678Z,44.53
2022-08-05T14:12:48.862Z,44.44
2022-08-05T14:16:05.218Z,43.73
2022-08-05T14:18:06.002Z,44.63
2022-08-05T14:20:43.334Z,45.07
2022-08-05T14:23:24.763Z,43.78
2022-08-05T14:25:57.937Z,45.30
2022-08-05T14:28:29.726Z,45.06
2022-08-05T14:30:59.656Z,43.85
2022-08-05T14:33:57.043Z,44.22
2022-08-05T14:36:21.444Z,44.04
2022-08-05T14:38:51.227Z,44.13
2022-08-05T14:41:19.400Z,44.18
2022-08-05T14:44:02.361Z,45.02
2022-08-05T14:46:35.527Z,43.58
2022-08-05T14:49:07.277Z,43.82
2022-08-05T14:51:42.403Z,44.04
2022-08-05T14:54:28.122Z,45.42
2022-08-05T14:56:59.188Z,44.35
2022-08-05T14:59:29.717Z,44.26
2022-08-05T15:02:15.050Z,45.26
2022-08-05T15:04:47.756Z,45.61
2022-08-05T15:08:05.698Z,46.01
2022-08-05T15:10:09.525Z,45.22
2022-08-05T15:12:59.717Z,45.30
2022-08-05T15:15:55.552Z,45.34
2022-08-05T15:18:17.233Z,44.62
2022-08-05T15:20:45.997Z,45.14
2022-08-05T15:23:14.375Z,44.98
2022-08-05T15:25:53.861Z,44.10
2022-08-05T15:28:27.272Z,44.34
2022-08-05T15:30:56.638Z,44.70
2022-08-05T15:34:18.892Z,44.56
2022-08-05T15:36:17.267Z,45.42
2022-08-05T15:40:41.395Z,45.02
2022-08-05T15:41:57.591Z,45.55
2022-08-05T15:44:30.292Z,44.00
2022-08-05T15:47:01.113Z,44.98
2022-08-05T15:49:48.229Z,45.10
2022-08-05T15:52:52.070Z,45.09
2022-08-05T15:55:16.268Z,45.52
2022-08-05T15:57:45.131Z,45.80
2022-08-05T16:00:16.650Z,46.16
2022-08-05T16:02:44.873Z,46.59
2022-08-05T16:05:13.281Z,47.28
2022-08-05T16:07:46.276Z,47.57
2022-08-05T16:10:14.635Z,47.62
2022-08-05T16:12:42.663Z,48.39
2022-08-05T16:15:10.653Z,49.79
2022-08-05T16:17:57.418Z,51.14
2022-08-05T16:20:26.200Z,52.61
2022-08-05T16:22:56.068Z,53.51
2022-08-05T16:25:32.352Z,54.06
2022-08-05T16:28:06.568Z,54.48
2022-08-05T16:30:37.965Z,54.65
2022-08-05T16:33:05.687Z,54.80
2022-08-05T16:35:41.991Z,55.34
2022-08-05T16:38:23.731Z,55.23
2022-08-05T16:40:59.630Z,55.57
2022-08-05T16:43:32.099Z,56.29
2022-08-05T16:46:04.279Z,57.79
2022-08-05T16:48:38.796Z,59.44
2022-08-05T16:51:09.009Z,60.44
2022-08-05T16:54:03.948Z,61.11
2022-08-05T16:56:30.349Z,60.82
2022-08-05T16:58:58.877Z,61.19
2022-08-05T17:01:52.564Z,60.78
2022-08-05T17:04:17.034Z,59.77
2022-08-05T17:06:53.500Z,59.76
2022-08-05T17:09:23.154Z,59.94
2022-08-05T17:11:56.119Z,59.90
2022-08-05T17:14:36.820Z,60.62
2022-08-05T17:17:14.162Z,61.14
2022-08-05T17:19:46.058Z,62.43
2022-08-05T17:22:24.754Z,63.60
2022-08-05T17:24:58.683Z,64.54
2022-08-05T17:27:33.541Z,65.33
2022-08-05T17:30:12.179Z,65.63
2022-08-05T17:32:47.196Z,66.34
2022-08-05T17:35:15.876Z,66.71
2022-08-05T17:37:49.259Z,68.00
2022-08-05T17:40:22.699Z,68.58
2022-08-05T17:42:52.014Z,68.89
2022-08-05T17:45:25.033Z,69.33
2022-08-05T17:47:58.189Z,70.50
2022-08-05T17:50:30.539Z,70.76
2022-08-05T17:53:01.425Z,71.48
2022-08-05T17:55:37.638Z,71.95
2022-08-05T17:58:09.683Z,72.66
2022-08-05T18:00:44.687Z,73.51
2022-08-05T18:06:12.075Z,75.20
2022-08-05T18:08:45.734Z,76.08
2022-08-05T18:11:24.293Z,76.74
2022-08-05T18:14:03.679Z,77.04
2022-08-05T18:16:33.600Z,77.41
2022-08-05T18:19:03.051Z,77.82
2022-08-05T18:22:09.353Z,78.84
2022-08-05T18:24:19.103Z,79.46
2022-08-05T18:26:48.933Z,79.94
2022-08-05T18:29:16.876Z,80.81
2022-08-05T18:31:45.045Z,81.13
2022-08-05T18:34:12.976Z,81.49
2022-08-05T18:36:43.692Z,81.63
2022-08-05T18:39:22.423Z,82.25
2022-08-05T18:42:06.040Z,82.46
2022-08-05T18:44:55.516Z,82.85
2022-08-05T18:47:26.634Z,83.04
2022-08-05T18:50:15.509Z,83.25
2022-08-05T18:52:50.794Z,83.81
2022-08-05T18:55:21.737Z,84.39
2022-08-05T18:57:53.350Z,84.73
2022-08-05T19:00:27.182Z,85.11
2022-08-05T19:03:04.251Z,85.08
2022-08-05T19:06:12.600Z,84.87
2022-08-05T19:08:30.809Z,85.16
2022-08-05T19:11:02.807Z,85.69
2022-08-05T19:13:35.682Z,85.94
2022-08-05T19:16:22.202Z,86.33
2022-08-05T19:18:56.792Z,86.33
2022-08-05T19:21:27.395Z,86.72
2022-08-05T19:24:05.399Z,87.05
2022-08-05T19:26:54.638Z,87.17
2022-08-05T19:29:36.401Z,87.96
2022-08-05T19:32:11.179Z,88.13
2022-08-05T19:34:39.896Z,88.13
2022-08-05T19:37:10.095Z,88.49
2022-08-05T19:39:45.837Z,88.68
2022-08-05T19:42:36.132Z,89.22
2022-08-05T19:45:06.462Z,89.07
2022-08-05T19:47:37.170Z,89.15
2022-08-05T19:50:07.869Z,89.92
2022-08-05T19:52:40.023Z,90.40
2022-08-05T19:56:15.367Z,90.60
2022-08-05T19:58:04.067Z,91.46
2022-08-05T20:00:44.564Z,91.59
2022-08-05T20:03:12.374Z,91.36
2022-08-05T20:05:50.333Z,91.85
2022-08-05T20:08:20.034Z,91.94
2022-08-05T20:10:49.688Z,92.32
2022-08-05T20:13:30.087Z,92.76
2022-08-05T20:16:06.954Z,93.51
2022-08-05T20:18:35.995Z,94.23
2022-08-05T20:21:06.612Z,95.38
2022-08-05T20:23:39.928Z,95.79
2022-08-05T20:26:21.797Z,96.56
2022-08-05T20:28:55.783Z,98.00
2022-08-05T20:31:36.924Z,98.01
2022-08-05T20:34:12.527Z,98.81
2022-08-05T20:36:43.188Z,99.63
2022-08-05T20:39:16.798Z,99.80
2022-08-05T20:41:47.926Z,99.94
2022-08-05T20:44:30.697Z,100.00
2022-08-05T20:47:01.619Z,100.00
2022-08-05T20:49:37.913Z,100.00
2022-08-05T20:52:10.811Z,100.00
2022-08-05T20:54:43.127Z,100.00
2022-08-05T20:57:24.406Z,100.00
2022-08-05T21:00:40.764Z,100.00
2022-08-05T21:03:06.374Z,100.00
2022-08-05T21:05:47.690Z,100.00
2022-08-05T21:08:31.715Z,100.00
2022-08-05T21:11:09.106Z,100.00
2022-08-05T21:13:56.274Z,100.00
2022-08-05T21:16:29.462Z,100.00
2022-08-05T21:19:01.146Z,100.00
2022-08-05T21:21:39.554Z,100.00
2022-08-05T21:24:15.346Z,100.00
2022-08-05T21:26:50.532Z,100.00
2022-08-05T21:29:26.442Z,100.00
2022-08-05T21:32:03.094Z,100.00
2022-08-05T21:34:31.723Z,100.00
2022-08-05T21:37:00.793Z,100.00
2022-08-05T21:39:30.212Z,100.00
2022-08-05T21:42:02.602Z,100.00
2022-08-05T21:44:31.944Z,100.00
2022-08-05T21:47:00.335Z,100.00
2022-08-05T21:49:48.051Z,100.00
2022-08-05T21:52:27.252Z,100.00
2022-08-05T21:54:57.045Z,100.00
2022-08-05T21:57:32.702Z,100.00
2022-08-05T22:00:06.251Z,100.00
2022-08-05T22:02:34.712Z,100.00
2022-08-05T22:05:04.611Z,100.00
2022-08-05T22:07:39.773Z,100.00
2022-08-05T22:10:27.203Z,100.00
2022-08-05T22:12:59.165Z,100.00
2022-08-05T22:16:01.623Z,100.00
2022-08-05T22:18:25.850Z,100.00
2022-08-05T22:20:54.466Z,100.00
2022-08-05T22:24:01.900Z,100.00
2022-08-05T22:26:50.760Z,100.00
2022-08-05T22:29:26.161Z,100.00
2022-08-05T22:31:55.201Z,100.00
2022-08-05T22:34:32.760Z,100.00
2022-08-05T22:37:03.825Z,100.00
2022-08-05T22:39:34.707Z,100.00
2022-08-05T22:42:09.739Z,100.00
2022-08-05T22:44:48.450Z,100.00
2022-08-05T22:47:29.933Z,100.00
2022-08-05T22:50:23.134Z,100.00
2022-08-05T22:52:51.536Z,100.00
2022-08-05T22:55:23.087Z,100.00
2022-08-05T22:57:52.653Z,100.00
2022-08-05T23:00:22.580Z,100.00
2022-08-05T23:02:53.434Z,100.00
2022-08-05T23:05:22.932Z,100.00
2022-08-05T23:07:51.812Z,100.00
2022-08-05T23:10:23.601Z,100.00
2022-08-05T23:12:55.232Z,100.00
2022-08-05T23:15:28.953Z,100.00
2022-08-05T23:18:01.069Z,100.00
2022-08-05T23:20:33.013Z,100.00
2022-08-05T23:23:03.452Z,100.00
2022-08-05T23:25:53.687Z,100.00
2022-08-05T23:28:19.280Z,100.00
2022-08-05T23:30:53.184Z,100.00
2022-08-05T23:33:26.131Z,100.00
2022-08-05T23:36:13.737Z,100.00
2022-08-05T23:38:43.631Z,100.00
2022-08-05T23:41:11.799Z,100.00
2022-08-05T23:44:06.403Z,100.00
2022-08-05T23:46:29.687Z,100.00
2022-08-05T23:49:00.305Z,100.00
2022-08-05T23:51:53.467Z,100.00
2022-08-05T23:54:25.982Z,100.00
2022-08-05T23:57:03.286Z,100.00
